Terminal Aerodrome Forecast
Issued by NWS

Home | Current Version | Previous Version | Text Only | Print | Product List | Glossary On
Versions: 1 2 3 4 5 6 7 8 9 10 11 12 13 14 15 16 17 18 19 20 21 22
000
FTUS41 KGYX 191241 AAA
TAFAUG
TAF AMD
KAUG 191241Z 1913/2012 01006KT 6SM BR OVC002
     FM191500 VRB03KT P6SM OVC006
     FM191800 20005KT P6SM BKN035
     FM200300 VRB03KT 3/4SM BR OVC003=

USA.gov is the U.S. government's official web portal to all federal, state and local government web resources and services.